createdAt,value
2022-10-28T00:00:09.275Z,80.45
2022-10-28T00:00:34.594Z,81.22
2022-10-28T00:01:09.462Z,73.82
2022-10-28T00:01:24.700Z,77.93
2022-10-28T00:01:37.400Z,81.22
2022-10-28T00:01:50.122Z,74.28
2022-10-28T00:02:02.793Z,62.00
2022-10-28T00:02:15.613Z,66.55
2022-10-28T00:02:28.714Z,59.72
2022-10-28T00:02:42.386Z,54.22
2022-10-28T00:02:55.439Z,51.33
2022-10-28T00:03:08.328Z,50.78
2022-10-28T00:03:21.131Z,53.78
2022-10-28T00:03:34.093Z,56.05
2022-10-28T00:03:48.271Z,52.15
2022-10-28T00:04:02.495Z,49.15
2022-10-28T00:04:15.327Z,47.70
2022-10-28T00:04:27.941Z,47.20
2022-10-28T00:04:40.580Z,47.72
2022-10-28T00:04:53.167Z,50.67
2022-10-28T00:05:06.475Z,52.17
2022-10-28T00:05:19.106Z,50.47
2022-10-28T00:05:34.656Z,51.85
2022-10-28T00:05:48.263Z,52.72
2022-10-28T00:06:04.825Z,49.63
2022-10-28T00:06:19.413Z,50.60
2022-10-28T00:06:34.265Z,48.10
2022-10-28T00:06:46.892Z,45.58
2022-10-28T00:07:00.455Z,47.10
2022-10-28T00:07:13.219Z,47.60
2022-10-28T00:07:25.861Z,49.15
2022-10-28T00:07:38.446Z,49.92
2022-10-28T00:07:51.250Z,48.08
2022-10-28T00:08:04.215Z,46.30
2022-10-28T00:08:16.824Z,43.65
2022-10-28T00:08:30.419Z,46.22
2022-10-28T00:08:43.349Z,47.70
2022-10-28T00:08:56.491Z,47.10
2022-10-28T00:09:12.123Z,48.00
2022-10-28T00:09:25.219Z,49.38
2022-10-28T00:09:37.835Z,50.63
2022-10-28T00:09:51.444Z,50.40
2022-10-28T00:10:04.714Z,49.63
2022-10-28T00:10:17.492Z,50.97
2022-10-28T00:10:30.165Z,56.58
2022-10-28T00:10:42.751Z,56.13
2022-10-28T00:11:02.383Z,52.33
2022-10-28T00:11:17.853Z,58.53
2022-10-28T00:11:32.551Z,63.20
2022-10-28T00:11:46.562Z,66.88
2022-10-28T00:11:59.148Z,64.82
2022-10-28T00:12:11.774Z,56.75
2022-10-28T00:12:24.332Z,52.70
2022-10-28T00:12:37.798Z,51.20
2022-10-28T00:12:51.407Z,50.17
2022-10-28T00:13:04.037Z,53.03
2022-10-28T00:13:16.656Z,54.88
2022-10-28T00:13:29.267Z,52.33
2022-10-28T00:13:43.225Z,53.72
2022-10-28T00:13:57.254Z,53.00
2022-10-28T00:14:11.872Z,46.22
2022-10-28T00:14:24.472Z,42.88
2022-10-28T00:14:37.278Z,43.90
2022-10-28T00:14:49.909Z,44.85
2022-10-28T00:15:02.617Z,47.13
2022-10-28T00:15:15.324Z,47.25
2022-10-28T00:15:27.967Z,43.80
2022-10-28T00:15:41.643Z,42.95
2022-10-28T00:15:54.220Z,45.45
2022-10-28T00:16:09.932Z,43.10
2022-10-28T00:16:24.927Z,42.97
2022-10-28T00:16:38.371Z,48.63
2022-10-28T00:16:51.983Z,45.45
2022-10-28T00:17:04.548Z,41.53
2022-10-28T00:17:17.207Z,41.42
2022-10-28T00:17:29.822Z,40.78
2022-10-28T00:17:42.428Z,42.30
2022-10-28T00:17:55.339Z,44.22
2022-10-28T00:18:08.258Z,43.85
2022-10-28T00:18:20.957Z,41.67
2022-10-28T00:18:34.565Z,39.33
2022-10-28T00:18:47.452Z,42.22
2022-10-28T00:19:00.986Z,45.10
2022-10-28T00:19:14.600Z,46.83
2022-10-28T00:19:28.199Z,47.15
2022-10-28T00:19:40.783Z,46.25
2022-10-28T00:19:53.491Z,42.45
2022-10-28T00:20:07.285Z,42.13
2022-10-28T00:20:19.868Z,45.85
2022-10-28T00:20:32.469Z,47.63
2022-10-28T00:20:45.052Z,49.80
2022-10-28T00:21:01.955Z,50.13
2022-10-28T00:21:16.944Z,50.25
2022-10-28T00:21:31.699Z,49.65
2022-10-28T00:21:45.277Z,49.03
2022-10-28T00:21:58.842Z,49.58
2022-10-28T00:22:11.425Z,51.97
2022-10-28T00:22:24.117Z,52.22
2022-10-28T00:22:36.699Z,48.50
2022-10-28T00:22:49.278Z,48.55
2022-10-28T00:23:01.847Z,48.38
2022-10-28T00:23:14.449Z,46.58
2022-10-28T00:23:27.244Z,45.47
2022-10-28T00:23:41.420Z,47.58
2022-10-28T00:23:54.378Z,48.17
2022-10-28T00:24:08.966Z,44.72
2022-10-28T00:24:21.652Z,46.28
2022-10-28T00:24:34.299Z,46.42
2022-10-28T00:24:46.914Z,50.65
2022-10-28T00:25:00.527Z,56.13
2022-10-28T00:25:13.132Z,56.63
2022-10-28T00:25:25.742Z,62.75
2022-10-28T00:25:38.395Z,63.90
2022-10-28T00:25:50.956Z,58.97
2022-10-28T00:26:09.031Z,57.78
2022-10-28T00:26:23.463Z,68.72
2022-10-28T00:26:39.241Z,65.47
2022-10-28T00:26:53.175Z,52.67
2022-10-28T00:27:05.755Z,51.63
2022-10-28T00:27:18.323Z,49.10
2022-10-28T00:27:31.570Z,48.05
2022-10-28T00:27:44.198Z,42.47
2022-10-28T00:27:56.794Z,40.70
2022-10-28T00:28:09.380Z,41.53
2022-10-28T00:28:23.096Z,41.33
2022-10-28T00:28:36.237Z,41.47
2022-10-28T00:28:51.362Z,42.38
2022-10-28T00:29:06.405Z,45.95
2022-10-28T00:29:20.754Z,46.85
2022-10-28T00:29:33.317Z,44.83
2022-10-28T00:29:46.967Z,43.50
2022-10-28T00:29:59.537Z,47.13
2022-10-28T00:30:12.462Z,50.70
2022-10-28T00:30:25.085Z,52.17
2022-10-28T00:30:37.707Z,47.84
2022-10-28T00:30:50.417Z,55.75
2022-10-28T00:31:06.167Z,58.80
2022-10-28T00:31:20.699Z,53.78
2022-10-28T00:31:36.007Z,52.38
2022-10-28T00:31:49.030Z,54.50
2022-10-28T00:32:01.653Z,66.13
2022-10-28T00:32:14.272Z,67.43
2022-10-28T00:32:28.947Z,63.92
2022-10-28T00:32:41.517Z,57.65
2022-10-28T00:32:54.429Z,51.13
2022-10-28T00:33:07.172Z,59.90
2022-10-28T00:33:20.734Z,70.75
2022-10-28T00:33:33.791Z,78.07
2022-10-28T00:33:46.732Z,74.00
2022-10-28T00:34:01.050Z,67.72
2022-10-28T00:34:15.084Z,60.22
2022-10-28T00:34:28.783Z,67.43
2022-10-28T00:34:41.628Z,71.55
2022-10-28T00:34:54.279Z,66.53
2022-10-28T00:35:07.876Z,54.83
2022-10-28T00:35:20.443Z,47.08
2022-10-28T00:35:33.931Z,48.38
2022-10-28T00:35:46.663Z,57.90
2022-10-28T00:36:08.608Z,60.38
2022-10-28T00:36:24.020Z,64.80
2022-10-28T00:36:38.592Z,81.55
2022-10-28T00:36:51.321Z,75.22
2022-10-28T00:37:03.902Z,64.22
2022-10-28T00:37:16.496Z,58.88
2022-10-28T00:37:29.062Z,55.60
2022-10-28T00:37:41.660Z,48.92
2022-10-28T00:37:55.249Z,51.30
2022-10-28T00:38:07.867Z,52.33
2022-10-28T00:38:20.436Z,48.10
2022-10-28T00:38:33.031Z,46.97
2022-10-28T00:38:47.289Z,48.63
2022-10-28T00:39:01.756Z,51.25
2022-10-28T00:39:17.731Z,52.05
2022-10-28T00:39:30.560Z,51.78
2022-10-28T00:39:43.111Z,51.55
2022-10-28T00:39:55.687Z,50.58
2022-10-28T00:40:09.504Z,51.08
2022-10-28T00:40:22.334Z,50.95
2022-10-28T00:40:35.083Z,50.70
2022-10-28T00:40:47.688Z,49.47
2022-10-28T00:41:00.254Z,50.88
2022-10-28T00:41:17.298Z,49.83
2022-10-28T00:41:32.727Z,47.15
2022-10-28T00:41:47.559Z,48.38
2022-10-28T00:42:03.693Z,47.00
2022-10-28T00:42:22.028Z,46.42
2022-10-28T00:42:35.628Z,49.22
2022-10-28T00:42:48.285Z,51.75
2022-10-28T00:43:00.899Z,49.83
2022-10-28T00:43:13.561Z,46.50
2022-10-28T00:43:34.891Z,48.22
2022-10-28T00:43:51.607Z,60.58
2022-10-28T00:44:43.861Z,54.50
2022-10-28T00:44:58.382Z,58.22
2022-10-28T00:45:11.703Z,50.92
2022-10-28T00:45:25.961Z,57.25
2022-10-28T00:45:39.015Z,60.72
2022-10-28T00:45:51.716Z,59.63
2022-10-28T00:46:09.974Z,59.05
2022-10-28T00:46:30.228Z,54.08
2022-10-28T00:46:47.619Z,63.72
2022-10-28T00:47:00.429Z,70.70
2022-10-28T00:47:18.276Z,74.03
2022-10-28T00:47:40.996Z,70.97
2022-10-28T00:47:57.008Z,66.93
2022-10-28T00:48:09.949Z,54.60
2022-10-28T00:48:22.594Z,52.03
2022-10-28T00:48:36.209Z,51.50
2022-10-28T00:48:54.186Z,51.10
2022-10-28T00:49:15.019Z,48.35
2022-10-28T00:49:30.295Z,56.70
2022-10-28T00:49:45.933Z,71.95
2022-10-28T00:50:07.022Z,67.32
2022-10-28T00:50:30.305Z,62.30
2022-10-28T00:50:48.823Z,69.00
2022-10-28T00:51:01.567Z,74.65
2022-10-28T00:51:15.400Z,66.80
2022-10-28T00:51:32.015Z,59.25
2022-10-28T00:51:47.612Z,78.15
2022-10-28T00:52:04.229Z,78.00
2022-10-28T00:52:20.911Z,62.88
2022-10-28T00:52:33.920Z,73.05
2022-10-28T00:52:54.087Z,80.63
2022-10-28T00:53:09.947Z,78.80
2022-10-28T00:53:27.671Z,77.28
2022-10-28T00:53:42.681Z,59.92
2022-10-28T00:53:56.257Z,58.10
2022-10-28T00:54:09.244Z,56.05
2022-10-28T00:54:22.797Z,54.38
2022-10-28T00:54:35.799Z,54.92
2022-10-28T00:54:50.758Z,59.00
2022-10-28T00:55:04.067Z,60.95
2022-10-28T00:55:20.316Z,62.50
2022-10-28T00:55:35.116Z,55.63
2022-10-28T00:55:49.209Z,49.85
2022-10-28T00:56:03.497Z,55.63
2022-10-28T00:56:17.347Z,54.13
2022-10-28T00:56:35.427Z,49.33
2022-10-28T00:56:51.759Z,52.45
2022-10-28T00:57:11.013Z,54.47
2022-10-28T00:57:28.967Z,57.58
2022-10-28T00:57:42.636Z,59.72
2022-10-28T00:57:57.665Z,49.63
2022-10-28T00:58:12.027Z,46.97
2022-10-28T00:58:26.571Z,45.53
2022-10-28T00:58:39.814Z,45.67
2022-10-28T00:58:57.059Z,44.92
2022-10-28T00:59:16.737Z,45.05
2022-10-28T00:59:36.258Z,54.47
2022-10-28T00:59:53.406Z,55.45
2022-10-28T01:00:08.517Z,52.47
2022-10-28T01:00:21.417Z,56.95
2022-10-28T01:00:34.075Z,55.20
2022-10-28T01:00:47.989Z,52.80
2022-10-28T01:01:00.731Z,51.20
2022-10-28T01:01:13.353Z,52.50
2022-10-28T01:01:26.154Z,50.75
2022-10-28T01:01:39.025Z,56.53
2022-10-28T01:01:52.185Z,61.40
2022-10-28T01:02:05.485Z,63.67
2022-10-28T01:02:19.682Z,66.38
2022-10-28T01:02:35.977Z,66.22
2022-10-28T01:02:49.637Z,60.33
2022-10-28T01:03:02.565Z,55.13
2022-10-28T01:03:15.965Z,48.97
2022-10-28T01:03:28.583Z,48.42
2022-10-28T01:03:41.461Z,48.15
2022-10-28T01:03:56.947Z,49.63
2022-10-28T01:04:10.911Z,51.47
2022-10-28T01:04:23.833Z,52.97
2022-10-28T01:04:36.543Z,54.65
2022-10-28T01:04:49.667Z,52.40
2022-10-28T01:05:03.054Z,47.80
2022-10-28T01:05:18.023Z,48.83
2022-10-28T01:05:33.766Z,50.70
2022-10-28T01:05:48.255Z,54.22
2022-10-28T01:06:02.559Z,62.62
2022-10-28T01:06:15.501Z,66.07
2022-10-28T01:06:29.827Z,61.53
2022-10-28T01:06:42.921Z,50.65
2022-10-28T01:06:57.137Z,51.38
2022-10-28T01:07:10.747Z,52.92
2022-10-28T01:07:23.595Z,51.50
2022-10-28T01:07:37.175Z,52.63
2022-10-28T01:07:51.698Z,55.72
2022-10-28T01:08:05.766Z,53.78
2022-10-28T01:08:18.898Z,54.22
2022-10-28T01:08:32.234Z,58.55
2022-10-28T01:08:44.787Z,64.90
2022-10-28T01:09:00.106Z,68.63
2022-10-28T01:09:13.509Z,59.63
2022-10-28T01:09:44.705Z,54.17
2022-10-28T01:09:57.499Z,53.60
2022-10-28T01:10:11.655Z,60.58
2022-10-28T01:10:32.179Z,61.90
2022-10-28T01:10:58.713Z,59.55
2022-10-28T01:11:47.200Z,50.85
2022-10-28T01:12:09.081Z,51.38
2022-10-28T01:12:31.632Z,56.30
2022-10-28T01:12:55.848Z,58.28
2022-10-28T01:13:17.379Z,53.22
2022-10-28T01:13:40.501Z,49.90
2022-10-28T01:14:12.987Z,60.28
2022-10-28T01:14:41.993Z,73.07
2022-10-28T01:15:05.479Z,63.25
2022-10-28T01:15:28.927Z,68.30
2022-10-28T01:15:46.937Z,60.28
2022-10-28T01:16:06.531Z,56.17
2022-10-28T01:16:34.107Z,53.35
2022-10-28T01:17:01.666Z,76.43
2022-10-28T01:17:33.687Z,76.65
2022-10-28T01:17:58.439Z,76.80
2022-10-28T01:18:20.540Z,85.28
2022-10-28T01:18:41.593Z,91.90
2022-10-28T01:19:03.123Z,84.82
2022-10-28T01:19:58.286Z,63.85
2022-10-28T01:20:41.715Z,64.00
2022-10-28T01:21:32.415Z,60.55
2022-10-28T01:22:03.899Z,59.83
2022-10-28T01:22:21.747Z,59.67
2022-10-28T01:22:39.235Z,59.53
2022-10-28T01:22:58.877Z,56.75
2022-10-28T01:23:19.459Z,52.72
2022-10-28T01:23:36.485Z,59.30
2022-10-28T01:24:04.217Z,60.35
2022-10-28T01:24:36.342Z,65.20
2022-10-28T01:25:18.212Z,60.05
2022-10-28T01:25:56.707Z,87.13
2022-10-28T01:26:36.959Z,78.35
2022-10-28T01:27:14.501Z,78.00
2022-10-28T01:27:56.119Z,70.65
2022-10-28T01:28:28.651Z,91.55
2022-10-28T01:29:01.537Z,113.18
2022-10-28T01:29:59.905Z,81.72
2022-10-28T01:30:16.138Z,53.33
2022-10-28T01:30:35.959Z,51.70
2022-10-28T01:31:11.141Z,60.88
2022-10-28T01:31:35.461Z,50.95
2022-10-28T01:31:52.545Z,51.58
2022-10-28T01:32:12.117Z,58.90
2022-10-28T01:32:33.311Z,71.32
2022-10-28T01:32:56.035Z,59.13
2022-10-28T01:33:15.318Z,62.15
2022-10-28T01:33:35.498Z,62.95
2022-10-28T01:33:52.813Z,84.18
2022-10-28T01:34:14.483Z,83.55
2022-10-28T01:34:31.760Z,72.85
2022-10-28T01:34:54.185Z,65.35
2022-10-28T01:35:17.047Z,64.00
2022-10-28T01:35:34.930Z,59.90
2022-10-28T01:35:52.983Z,57.33
2022-10-28T01:36:12.423Z,60.78
2022-10-28T01:36:36.475Z,53.85
2022-10-28T01:36:58.627Z,56.28
2022-10-28T01:37:17.375Z,61.97
2022-10-28T01:37:34.621Z,73.78
2022-10-28T01:37:56.572Z,80.18
2022-10-28T01:38:21.773Z,105.07
2022-10-28T01:38:41.725Z,85.40
2022-10-28T01:39:03.284Z,98.57
2022-10-28T01:39:26.663Z,106.53
2022-10-28T01:39:48.356Z,106.65
2022-10-28T01:40:09.457Z,95.15
2022-10-28T01:40:33.428Z,88.57
2022-10-28T01:40:55.284Z,96.78
2022-10-28T01:41:12.182Z,85.45
2022-10-28T01:41:32.117Z,80.03
2022-10-28T01:41:52.859Z,94.25
2022-10-28T01:42:15.254Z,80.35
2022-10-28T01:42:32.492Z,79.68
2022-10-28T01:42:51.961Z,68.82
2022-10-28T01:43:14.146Z,69.43
2022-10-28T01:43:30.182Z,70.35
2022-10-28T01:43:47.364Z,73.72
2022-10-28T01:44:06.743Z,77.28
2022-10-28T01:44:26.435Z,70.15
2022-10-28T01:44:49.691Z,68.72
2022-10-28T01:45:09.807Z,68.93
2022-10-28T01:45:29.139Z,75.03
2022-10-28T01:45:50.151Z,79.13
2022-10-28T01:46:09.077Z,87.20
2022-10-28T01:46:27.981Z,100.47
2022-10-28T01:46:43.891Z,86.18
2022-10-28T01:47:02.575Z,77.53
2022-10-28T01:47:20.298Z,81.80
2022-10-28T01:47:37.603Z,80.63
2022-10-28T01:47:57.923Z,79.25
2022-10-28T01:48:14.895Z,95.18
2022-10-28T01:48:34.055Z,99.93
2022-10-28T01:48:51.038Z,98.63
2022-10-28T01:49:10.879Z,98.32
2022-10-28T01:49:29.326Z,79.57
2022-10-28T01:49:48.907Z,81.70
2022-10-28T01:50:05.772Z,82.93
2022-10-28T01:50:24.139Z,77.75
2022-10-28T01:50:41.955Z,70.72
2022-10-28T01:51:00.710Z,83.65
2022-10-28T01:51:19.833Z,97.93
2022-10-28T01:51:36.904Z,91.00
2022-10-28T01:51:54.281Z,81.97
2022-10-28T01:52:12.297Z,82.03
2022-10-28T01:52:29.070Z,87.50
2022-10-28T01:52:44.829Z,79.00
2022-10-28T01:53:01.276Z,68.72
2022-10-28T01:53:18.752Z,58.95
2022-10-28T01:53:35.907Z,52.58
2022-10-28T01:53:53.007Z,55.90
2022-10-28T01:54:09.899Z,64.53
2022-10-28T01:54:25.096Z,79.70
2022-10-28T01:54:40.959Z,84.85
2022-10-28T01:54:58.526Z,75.50
2022-10-28T01:55:15.843Z,64.68
2022-10-28T01:55:34.401Z,65.82
2022-10-28T01:55:52.226Z,53.65
2022-10-28T01:56:09.628Z,51.63
2022-10-28T01:56:25.130Z,51.45
2022-10-28T01:56:41.500Z,48.83
2022-10-28T01:56:57.181Z,49.53
2022-10-28T01:57:12.915Z,51.17
2022-10-28T01:57:29.229Z,47.03
2022-10-28T01:57:43.410Z,43.35
2022-10-28T01:57:59.549Z,45.90
2022-10-28T01:58:15.727Z,57.28
2022-10-28T01:58:31.685Z,64.30
2022-10-28T01:58:45.353Z,61.83
2022-10-28T01:59:01.980Z,58.42
2022-10-28T01:59:20.119Z,54.42
2022-10-28T01:59:34.778Z,52.63
2022-10-28T01:59:48.651Z,49.25
2022-10-28T02:00:02.091Z,48.80
2022-10-28T02:00:15.728Z,54.15
2022-10-28T02:00:29.893Z,56.28
2022-10-28T02:00:45.924Z,56.63
2022-10-28T02:01:00.983Z,70.45
2022-10-28T02:01:16.656Z,84.68
2022-10-28T02:01:31.724Z,78.03
2022-10-28T02:01:44.791Z,70.00
2022-10-28T02:01:58.016Z,62.33
2022-10-28T02:02:10.731Z,59.67
2022-10-28T02:02:24.901Z,63.50
2022-10-28T02:02:38.348Z,73.68
2022-10-28T02:02:51.596Z,89.43
2022-10-28T02:03:06.675Z,90.60
2022-10-28T02:03:19.423Z,77.50
2022-10-28T02:03:32.259Z,71.10
2022-10-28T02:03:46.927Z,62.30
2022-10-28T02:03:59.643Z,55.75
2022-10-28T02:04:12.286Z,55.60
2022-10-28T02:04:24.942Z,76.25
2022-10-28T02:04:37.498Z,87.25
2022-10-28T02:04:50.115Z,78.10
2022-10-28T02:05:27.539Z,72.38
2022-10-28T02:05:44.121Z,65.03
2022-10-28T02:05:59.776Z,82.88
2022-10-28T02:06:17.380Z,76.80
2022-10-28T02:06:32.945Z,91.07
2022-10-28T02:06:50.262Z,109.32
2022-10-28T02:07:03.839Z,98.93
2022-10-28T02:07:17.089Z,100.55
2022-10-28T02:07:29.668Z,94.40
2022-10-28T02:07:42.245Z,91.68
2022-10-28T02:07:59.763Z,90.35
2022-10-28T02:08:45.048Z,89.18
2022-10-28T02:09:07.975Z,111.68
2022-10-28T02:09:32.275Z,98.28
2022-10-28T02:10:01.460Z,82.10
2022-10-28T02:10:22.742Z,67.18
2022-10-28T02:10:42.079Z,77.45
2022-10-28T02:11:04.167Z,80.82
2022-10-28T02:11:34.404Z,95.95
2022-10-28T02:12:08.757Z,71.65
2022-10-28T02:12:26.657Z,65.97
2022-10-28T02:12:39.302Z,68.78
2022-10-28T02:12:56.531Z,71.00
2022-10-28T02:13:15.015Z,78.80
2022-10-28T02:13:39.006Z,78.07
2022-10-28T02:13:58.913Z,66.35
2022-10-28T02:14:25.475Z,63.88
2022-10-28T02:15:38.743Z,66.50
2022-10-28T02:16:00.935Z,96.13
2022-10-28T02:16:23.647Z,79.05
2022-10-28T02:16:47.970Z,66.75
2022-10-28T02:17:10.688Z,67.47
2022-10-28T02:17:37.522Z,58.65
2022-10-28T02:18:17.181Z,64.65
2022-10-28T02:18:40.112Z,77.47
2022-10-28T02:19:00.308Z,74.72
2022-10-28T02:19:18.897Z,65.38
2022-10-28T02:19:39.524Z,55.72
2022-10-28T02:20:00.878Z,49.08
2022-10-28T02:20:22.985Z,58.13
2022-10-28T02:20:46.551Z,61.92
2022-10-28T02:21:03.479Z,69.68
2022-10-28T02:21:29.487Z,68.85
2022-10-28T02:21:53.211Z,76.90
2022-10-28T02:22:15.943Z,80.53
2022-10-28T02:22:34.698Z,76.45
2022-10-28T02:22:53.429Z,74.38
2022-10-28T02:23:17.439Z,81.30
2022-10-28T02:23:42.417Z,86.95
2022-10-28T02:24:02.129Z,81.88
2022-10-28T02:24:21.517Z,103.22
2022-10-28T02:24:45.591Z,101.63
2022-10-28T02:25:07.797Z,90.60
2022-10-28T02:25:23.356Z,103.45
2022-10-28T02:25:42.520Z,111.60
2022-10-28T02:25:58.727Z,87.55
2022-10-28T02:26:21.813Z,85.80
2022-10-28T02:26:38.844Z,94.18
2022-10-28T02:26:56.907Z,88.45
2022-10-28T02:27:16.638Z,78.95
2022-10-28T02:27:34.891Z,74.55
2022-10-28T02:27:55.994Z,68.65
2022-10-28T02:28:37.939Z,73.45
2022-10-28T02:28:58.629Z,79.47
2022-10-28T02:29:17.532Z,76.07
2022-10-28T02:29:37.656Z,89.53
2022-10-28T02:29:56.084Z,89.38
2022-10-28T02:30:12.843Z,74.75
2022-10-28T02:30:32.957Z,70.65
2022-10-28T02:30:49.431Z,74.93
2022-10-28T02:31:07.787Z,72.13
2022-10-28T02:31:25.698Z,78.95
2022-10-28T02:31:42.805Z,83.95
2022-10-28T02:32:00.201Z,79.70
2022-10-28T02:32:16.336Z,73.25
2022-10-28T02:32:34.569Z,82.00
2022-10-28T02:32:52.773Z,85.80
2022-10-28T02:33:10.063Z,72.85
2022-10-28T02:33:26.924Z,63.25
2022-10-28T02:33:42.529Z,58.67
2022-10-28T02:34:00.743Z,67.35
2022-10-28T02:34:18.456Z,75.28
2022-10-28T02:34:35.757Z,66.00
2022-10-28T02:34:52.379Z,63.83
2022-10-28T02:35:11.399Z,71.72
2022-10-28T02:35:30.858Z,74.65
2022-10-28T02:35:48.126Z,59.75
2022-10-28T02:36:05.439Z,63.03
2022-10-28T02:36:20.041Z,58.50
2022-10-28T02:36:37.564Z,55.08
2022-10-28T02:36:54.096Z,54.45
2022-10-28T02:37:13.514Z,56.00
2022-10-28T02:37:30.732Z,61.20
2022-10-28T02:37:45.856Z,54.97
2022-10-28T02:38:01.760Z,56.90
2022-10-28T02:38:18.831Z,59.60
2022-10-28T02:38:35.264Z,64.18
2022-10-28T02:38:51.330Z,61.30
2022-10-28T02:39:06.470Z,53.88
2022-10-28T02:39:23.641Z,52.60
2022-10-28T02:39:41.452Z,62.20
2022-10-28T02:39:57.264Z,63.88
2022-10-28T02:40:20.325Z,61.35
2022-10-28T02:40:35.096Z,71.70
2022-10-28T02:41:16.007Z,48.97
2022-10-28T02:41:36.403Z,55.35
2022-10-28T02:41:54.048Z,51.78
2022-10-28T02:42:10.338Z,52.80
2022-10-28T02:42:28.189Z,55.92
2022-10-28T02:42:46.874Z,55.50
2022-10-28T02:43:04.277Z,55.25
2022-10-28T02:43:20.304Z,52.33
2022-10-28T02:43:34.946Z,59.63
2022-10-28T02:43:50.600Z,57.17
2022-10-28T02:44:09.126Z,52.03
2022-10-28T02:44:29.030Z,57.08
2022-10-28T02:44:46.171Z,57.65
2022-10-28T02:45:12.387Z,63.25
2022-10-28T02:45:29.724Z,75.47
2022-10-28T02:45:45.723Z,67.32
2022-10-28T02:46:03.600Z,62.25
2022-10-28T02:46:19.424Z,62.63
2022-10-28T02:46:35.442Z,70.15
2022-10-28T02:46:50.534Z,66.78
2022-10-28T02:47:12.792Z,61.20
2022-10-28T02:47:32.473Z,71.20
2022-10-28T02:47:50.166Z,58.38
2022-10-28T02:48:07.329Z,57.25
2022-10-28T02:48:25.701Z,58.28
2022-10-28T02:48:43.537Z,55.25
2022-10-28T02:49:00.523Z,51.47
2022-10-28T02:49:14.925Z,51.28
2022-10-28T02:49:30.203Z,54.53
2022-10-28T02:49:46.119Z,67.20
2022-10-28T02:50:04.254Z,74.72
2022-10-28T02:50:21.374Z,65.20
2022-10-28T02:50:38.609Z,56.95
2022-10-28T02:50:58.914Z,54.58
2022-10-28T02:51:16.362Z,53.05
2022-10-28T02:51:33.916Z,55.67
2022-10-28T02:51:52.455Z,51.95
2022-10-28T02:52:07.385Z,56.60
2022-10-28T02:52:23.040Z,56.95
2022-10-28T02:52:36.612Z,48.78
2022-10-28T02:52:54.649Z,52.35
2022-10-28T02:53:13.960Z,51.70
2022-10-28T02:53:31.865Z,54.70
2022-10-28T02:53:56.072Z,55.30
2022-10-28T02:54:11.979Z,45.38
2022-10-28T02:54:29.491Z,53.38
2022-10-28T02:54:46.002Z,56.95
2022-10-28T02:55:00.278Z,51.42
2022-10-28T02:55:13.996Z,46.17
2022-10-28T02:55:32.463Z,47.75
2022-10-28T02:55:49.492Z,57.83
2022-10-28T02:56:06.834Z,55.40
2022-10-28T02:56:21.570Z,57.47
2022-10-28T02:56:37.841Z,61.05
2022-10-28T02:56:56.727Z,63.95
2022-10-28T02:57:13.665Z,53.70
2022-10-28T02:57:29.297Z,59.80
2022-10-28T02:57:45.027Z,70.50
2022-10-28T02:57:58.188Z,68.50
2022-10-28T02:58:12.670Z,66.40
2022-10-28T02:58:25.280Z,59.50
2022-10-28T02:58:40.107Z,60.92
2022-10-28T02:58:53.103Z,56.35
2022-10-28T02:59:11.132Z,50.45
2022-10-28T02:59:25.207Z,53.00
2022-10-28T02:59:38.766Z,52.67
2022-10-28T02:59:53.459Z,58.15
2022-10-28T03:00:09.671Z,60.30
2022-10-28T03:00:24.610Z,53.90
2022-10-28T03:00:37.297Z,55.03
2022-10-28T03:00:50.879Z,56.85
2022-10-28T03:01:03.611Z,60.70
2022-10-28T03:01:18.460Z,76.32
2022-10-28T03:01:31.228Z,80.78
2022-10-28T03:01:45.439Z,75.85
2022-10-28T03:01:59.214Z,70.35
2022-10-28T03:02:12.021Z,60.85
2022-10-28T03:02:25.374Z,54.88
2022-10-28T03:02:37.968Z,54.20
2022-10-28T03:02:51.675Z,55.33
2022-10-28T03:03:04.520Z,56.38
2022-10-28T03:03:19.802Z,60.13
2022-10-28T03:03:32.399Z,57.03
2022-10-28T03:03:45.202Z,64.57
2022-10-28T03:03:57.805Z,69.90
2022-10-28T03:04:10.512Z,69.55
2022-10-28T03:04:24.198Z,70.55
2022-10-28T03:04:36.913Z,63.88
2022-10-28T03:04:49.528Z,64.60
2022-10-28T03:05:02.759Z,58.65
2022-10-28T03:05:15.636Z,64.55
2022-10-28T03:05:28.215Z,66.60
2022-10-28T03:05:40.833Z,60.47
2022-10-28T03:05:54.402Z,54.00
2022-10-28T03:06:07.049Z,59.25
2022-10-28T03:06:19.733Z,55.15
2022-10-28T03:06:32.341Z,53.05
2022-10-28T03:06:44.996Z,60.25
2022-10-28T03:06:57.617Z,72.28
2022-10-28T03:07:10.259Z,63.50
2022-10-28T03:07:22.962Z,61.30
2022-10-28T03:07:36.533Z,56.35
2022-10-28T03:07:49.197Z,54.15
2022-10-28T03:08:01.768Z,55.35
2022-10-28T03:08:14.385Z,52.70
2022-10-28T03:08:26.999Z,57.30
2022-10-28T03:08:39.687Z,64.35
2022-10-28T03:08:53.830Z,65.15
2022-10-28T03:09:06.475Z,60.00
2022-10-28T03:09:19.120Z,58.17
2022-10-28T03:09:31.682Z,48.53
2022-10-28T03:09:44.352Z,43.22
2022-10-28T03:09:57.119Z,48.08
2022-10-28T03:10:10.168Z,52.92
2022-10-28T03:10:23.784Z,54.40
2022-10-28T03:10:36.346Z,58.15
2022-10-28T03:10:49.777Z,59.42
2022-10-28T03:11:02.339Z,57.67
2022-10-28T03:11:14.941Z,62.35
2022-10-28T03:11:27.709Z,57.28
2022-10-28T03:11:40.332Z,61.35
2022-10-28T03:11:53.886Z,61.78
2022-10-28T03:12:06.646Z,58.25
2022-10-28T03:12:19.319Z,61.47
2022-10-28T03:12:31.944Z,55.55
2022-10-28T03:12:44.515Z,51.10
2022-10-28T03:12:57.120Z,51.13
2022-10-28T03:13:09.712Z,54.60
2022-10-28T03:13:23.275Z,54.50
2022-10-28T03:13:35.824Z,55.00
2022-10-28T03:13:48.420Z,53.78
2022-10-28T03:14:01.207Z,56.17
2022-10-28T03:14:15.369Z,54.22
2022-10-28T03:14:28.196Z,58.58
2022-10-28T03:14:40.954Z,58.03
2022-10-28T03:14:54.524Z,56.13
2022-10-28T03:15:08.155Z,59.72
2022-10-28T03:15:20.778Z,66.85
2022-10-28T03:15:33.395Z,69.90
2022-10-28T03:15:47.000Z,63.20
2022-10-28T03:15:59.576Z,54.35
2022-10-28T03:16:12.176Z,50.78
2022-10-28T03:16:26.623Z,48.78
2022-10-28T03:16:39.415Z,49.83
2022-10-28T03:16:53.341Z,56.40
2022-10-28T03:17:07.767Z,58.08
2022-10-28T03:17:20.294Z,55.17
2022-10-28T03:17:32.873Z,53.70
2022-10-28T03:17:45.439Z,54.95
2022-10-28T03:17:59.009Z,60.17
2022-10-28T03:18:11.625Z,69.32
2022-10-28T03:18:24.187Z,67.55
2022-10-28T03:18:36.716Z,64.28
2022-10-28T03:18:50.182Z,66.78
2022-10-28T03:19:02.781Z,66.32
2022-10-28T03:19:16.374Z,59.97
2022-10-28T03:19:29.158Z,61.67
2022-10-28T03:19:41.800Z,61.50
2022-10-28T03:19:54.354Z,57.08
2022-10-28T03:20:07.867Z,62.83
2022-10-28T03:20:20.432Z,69.30
2022-10-28T03:20:33.019Z,63.15
2022-10-28T03:20:46.599Z,63.50
2022-10-28T03:20:59.292Z,72.13
2022-10-28T03:21:11.908Z,65.97
2022-10-28T03:21:24.495Z,57.97
2022-10-28T03:21:37.032Z,63.33
2022-10-28T03:21:49.586Z,61.65
2022-10-28T03:22:02.148Z,62.10
2022-10-28T03:22:15.758Z,67.00
2022-10-28T03:22:28.331Z,66.75
2022-10-28T03:22:43.191Z,60.50
2022-10-28T03:22:56.136Z,62.42
2022-10-28T03:23:08.950Z,72.45
2022-10-28T03:23:21.475Z,79.50
2022-10-28T03:23:35.046Z,70.78
2022-10-28T03:23:47.657Z,62.00
2022-10-28T03:24:00.214Z,68.75
2022-10-28T03:24:12.957Z,75.03
2022-10-28T03:24:25.529Z,76.03
2022-10-28T03:24:39.080Z,67.15
2022-10-28T03:24:51.846Z,61.58
2022-10-28T03:25:05.327Z,66.07
2022-10-28T03:25:17.976Z,65.20
2022-10-28T03:25:30.566Z,65.15
2022-10-28T03:25:43.162Z,63.35
2022-10-28T03:25:55.702Z,63.08
2022-10-28T03:26:08.303Z,65.18
2022-10-28T03:26:21.821Z,66.72
2022-10-28T03:26:34.485Z,74.28
2022-10-28T03:26:47.098Z,84.30
2022-10-28T03:27:00.177Z,86.38
2022-10-28T03:27:12.737Z,84.57
2022-10-28T03:27:25.325Z,76.00
2022-10-28T03:27:40.797Z,78.68
2022-10-28T03:27:53.362Z,84.70
2022-10-28T03:28:05.915Z,75.38
2022-10-28T03:28:18.507Z,64.60
2022-10-28T03:28:31.049Z,72.80
2022-10-28T03:28:43.646Z,76.28
2022-10-28T03:28:57.388Z,67.72
2022-10-28T03:29:10.004Z,67.93
2022-10-28T03:29:22.569Z,69.18
2022-10-28T03:29:35.150Z,61.00
2022-10-28T03:29:47.719Z,59.08
2022-10-28T03:30:00.297Z,74.15
2022-10-28T03:30:14.493Z,75.40
2022-10-28T03:30:28.096Z,82.93
2022-10-28T03:30:40.641Z,87.10
2022-10-28T03:30:53.263Z,79.82
2022-10-28T03:31:06.005Z,67.28
2022-10-28T03:31:18.580Z,61.20
2022-10-28T03:31:31.155Z,67.00
2022-10-28T03:31:43.752Z,79.30
2022-10-28T03:31:57.670Z,78.25
2022-10-28T03:32:11.350Z,66.53
2022-10-28T03:32:24.002Z,55.85
2022-10-28T03:32:36.645Z,52.72